createdAt,value
2022-12-09T00:00:55.880Z,23.10
2022-12-09T00:03:23.953Z,23.10
2022-12-09T00:05:51.736Z,23.10
2022-12-09T00:08:20.321Z,23.10
2022-12-09T00:10:48.394Z,23.10
2022-12-09T00:13:16.713Z,23.10
2022-12-09T00:15:44.368Z,23.10
2022-12-09T00:18:12.213Z,23.10
2022-12-09T00:20:39.700Z,23.20
2022-12-09T00:23:07.289Z,23.20
2022-12-09T00:25:34.857Z,23.30
2022-12-09T00:28:02.443Z,23.30
2022-12-09T00:30:30.060Z,23.40
2022-12-09T00:32:57.752Z,23.40
2022-12-09T00:35:25.229Z,23.30
2022-12-09T00:37:52.853Z,23.40
2022-12-09T00:40:20.470Z,23.40
2022-12-09T00:42:48.780Z,23.40
2022-12-09T00:45:16.414Z,23.50
2022-12-09T00:47:44.082Z,23.50
2022-12-09T00:50:11.800Z,23.50
2022-12-09T00:52:39.395Z,23.50
2022-12-09T00:55:07.533Z,23.50
2022-12-09T00:57:35.523Z,23.60
2022-12-09T01:00:05.049Z,23.60
2022-12-09T01:05:00.801Z,23.70
2022-12-09T01:07:28.549Z,23.70
2022-12-09T01:12:23.649Z,23.90
2022-12-09T01:14:51.126Z,24.00
2022-12-09T01:17:18.742Z,24.00
2022-12-09T01:19:46.639Z,24.10
2022-12-09T01:22:14.430Z,24.20
2022-12-09T01:24:42.009Z,24.30
2022-12-09T01:27:09.605Z,24.30
2022-12-09T01:29:37.231Z,24.50
2022-12-09T01:32:04.960Z,24.50
2022-12-09T01:34:33.645Z,24.60
2022-12-09T01:37:01.466Z,24.60
2022-12-09T01:39:29.583Z,24.70
2022-12-09T01:41:57.226Z,24.70
2022-12-09T01:44:26.641Z,24.80
2022-12-09T01:46:55.784Z,24.90
2022-12-09T01:49:31.970Z,24.90
2022-12-09T01:52:14.793Z,25.00
2022-12-09T01:54:43.845Z,25.10
2022-12-09T01:57:12.589Z,25.20
2022-12-09T01:59:41.268Z,25.20
2022-12-09T02:02:10.917Z,25.30
2022-12-09T02:04:41.840Z,25.40
2022-12-09T02:07:10.639Z,25.40
2022-12-09T02:09:42.247Z,25.50
2022-12-09T02:12:10.018Z,25.50
2022-12-09T02:14:42.641Z,25.50
2022-12-09T02:17:10.970Z,25.60
2022-12-09T02:19:39.389Z,25.60
2022-12-09T02:22:08.029Z,25.70
2022-12-09T02:24:42.456Z,25.70
2022-12-09T02:27:21.225Z,25.80
2022-12-09T02:29:56.771Z,25.80
2022-12-09T02:32:35.197Z,25.90
2022-12-09T02:35:11.363Z,25.90
2022-12-09T02:37:49.937Z,26.00
2022-12-09T02:40:22.529Z,26.10
2022-12-09T02:42:50.333Z,26.10
2022-12-09T02:45:19.647Z,26.20
2022-12-09T02:47:51.948Z,26.20
2022-12-09T02:50:21.742Z,26.20
2022-12-09T02:52:53.357Z,26.30
2022-12-09T02:55:23.632Z,26.30
2022-12-09T02:57:53.375Z,26.40
2022-12-09T03:00:22.250Z,26.40
2022-12-09T03:02:52.723Z,26.50
2022-12-09T03:05:26.720Z,26.60
2022-12-09T03:08:00.558Z,26.60
2022-12-09T03:10:32.495Z,26.60
2022-12-09T03:13:11.188Z,26.70
2022-12-09T03:15:40.167Z,26.80
2022-12-09T03:18:09.282Z,26.80
2022-12-09T03:20:45.232Z,26.80
2022-12-09T03:23:15.622Z,26.90
2022-12-09T03:25:48.153Z,26.90
2022-12-09T03:28:29.120Z,27.00
2022-12-09T03:30:58.323Z,27.00
2022-12-09T03:33:27.375Z,27.10
2022-12-09T03:35:57.531Z,27.20
2022-12-09T03:38:28.852Z,27.20
2022-12-09T03:41:01.450Z,27.30
2022-12-09T03:43:30.966Z,27.30
2022-12-09T03:45:59.161Z,27.30
2022-12-09T03:48:31.418Z,27.40
2022-12-09T03:51:01.161Z,27.40
2022-12-09T03:53:40.240Z,27.40
2022-12-09T03:56:28.402Z,27.50
2022-12-09T03:58:58.437Z,27.50
2022-12-09T04:01:40.750Z,27.50
2022-12-09T04:04:41.498Z,27.50
2022-12-09T04:07:12.266Z,27.60
2022-12-09T04:09:39.976Z,27.60
2022-12-09T04:12:13.974Z,27.60
2022-12-09T04:14:54.368Z,27.70
2022-12-09T04:17:22.869Z,27.70
2022-12-09T04:19:51.001Z,27.80
2022-12-09T04:22:19.739Z,27.80
2022-12-09T04:24:48.179Z,27.80
2022-12-09T04:27:17.015Z,27.90
2022-12-09T04:29:45.787Z,27.90
2022-12-09T04:32:13.532Z,28.00
2022-12-09T04:34:41.445Z,28.00
2022-12-09T04:37:09.372Z,28.10
2022-12-09T04:39:37.414Z,28.10
2022-12-09T04:42:05.658Z,28.10
2022-12-09T04:44:33.590Z,28.20
2022-12-09T04:47:01.253Z,28.20
2022-12-09T04:49:29.586Z,28.20
2022-12-09T04:51:57.654Z,28.30
2022-12-09T04:54:28.912Z,28.30
2022-12-09T04:56:56.510Z,28.30
2022-12-09T04:59:25.117Z,28.40
2022-12-09T05:01:52.829Z,28.40
2022-12-09T05:04:20.617Z,28.40
2022-12-09T05:06:48.816Z,28.40
2022-12-09T05:09:16.883Z,28.40
2022-12-09T05:11:49.195Z,28.40
2022-12-09T05:14:17.009Z,28.40
2022-12-09T05:16:44.768Z,28.40
2022-12-09T05:19:13.658Z,28.40
2022-12-09T05:21:44.747Z,28.40
2022-12-09T05:24:12.537Z,28.50
2022-12-09T05:26:41.154Z,28.50
2022-12-09T05:29:08.816Z,28.50
2022-12-09T05:31:37.072Z,28.60
2022-12-09T05:34:04.875Z,28.60
2022-12-09T05:36:32.941Z,28.60
2022-12-09T05:39:01.625Z,28.70
2022-12-09T05:41:29.739Z,28.70
2022-12-09T05:43:58.399Z,28.80
2022-12-09T05:46:26.658Z,28.90
2022-12-09T05:48:55.162Z,28.90
2022-12-09T05:51:23.264Z,29.00
2022-12-09T05:53:51.125Z,29.00
2022-12-09T05:56:19.895Z,29.10
2022-12-09T05:58:48.075Z,29.10
2022-12-09T06:01:16.182Z,29.10
2022-12-09T06:03:44.163Z,29.20
2022-12-09T06:06:13.657Z,29.20
2022-12-09T06:08:43.666Z,29.30
2022-12-09T06:11:18.985Z,29.30
2022-12-09T06:13:50.674Z,29.30
2022-12-09T06:16:19.781Z,29.30
2022-12-09T06:18:48.442Z,29.30
2022-12-09T06:21:17.039Z,29.30
2022-12-09T06:23:44.922Z,29.30
2022-12-09T06:26:38.920Z,29.40
2022-12-09T06:29:06.547Z,29.40
2022-12-09T06:31:35.052Z,29.50
2022-12-09T06:34:03.691Z,29.50
2022-12-09T06:36:32.005Z,29.50
2022-12-09T06:39:07.641Z,29.50
2022-12-09T06:41:37.937Z,29.50
2022-12-09T06:44:06.809Z,29.50
2022-12-09T06:46:34.754Z,29.50
2022-12-09T06:49:03.532Z,29.50
2022-12-09T06:51:31.410Z,29.50
2022-12-09T06:53:59.303Z,29.50
2022-12-09T06:56:28.356Z,29.50
2022-12-09T06:58:56.114Z,29.50
2022-12-09T07:01:25.870Z,29.50
2022-12-09T07:03:55.738Z,29.50
2022-12-09T07:06:45.162Z,29.50
2022-12-09T07:09:18.771Z,29.50
2022-12-09T07:11:48.290Z,29.50
2022-12-09T07:14:17.019Z,29.50
2022-12-09T07:16:46.081Z,29.50
2022-12-09T07:19:19.403Z,29.50
2022-12-09T07:21:47.897Z,29.50
2022-12-09T07:24:16.225Z,29.60
2022-12-09T07:26:47.724Z,29.60
2022-12-09T07:29:15.948Z,29.60
2022-12-09T07:31:46.244Z,29.60
2022-12-09T07:34:14.445Z,29.60
2022-12-09T07:36:43.367Z,29.60
2022-12-09T07:39:16.563Z,29.60
2022-12-09T07:41:45.370Z,29.70
2022-12-09T07:44:13.478Z,29.70
2022-12-09T07:46:41.253Z,29.80
2022-12-09T07:49:11.040Z,29.80
2022-12-09T07:51:39.017Z,29.70
2022-12-09T07:54:06.957Z,29.70
2022-12-09T07:56:34.561Z,29.60
2022-12-09T07:59:05.927Z,29.60
2022-12-09T08:01:33.825Z,29.60
2022-12-09T08:04:02.482Z,29.60
2022-12-09T08:06:31.467Z,29.70
2022-12-09T08:09:03.390Z,29.60
2022-12-09T08:11:32.351Z,29.60
2022-12-09T08:14:08.984Z,29.60
2022-12-09T08:16:39.322Z,29.60
2022-12-09T08:19:08.153Z,29.60
2022-12-09T08:21:37.469Z,29.60
2022-12-09T08:24:08.803Z,29.60
2022-12-09T08:26:40.185Z,29.60
2022-12-09T08:29:12.968Z,29.60
2022-12-09T08:31:42.276Z,29.70
2022-12-09T08:34:10.886Z,29.70
2022-12-09T08:36:39.227Z,29.70
2022-12-09T08:39:07.265Z,29.60
2022-12-09T08:41:36.932Z,29.70
2022-12-09T08:44:10.354Z,29.70
2022-12-09T08:46:39.292Z,29.70
2022-12-09T08:49:08.180Z,29.70
2022-12-09T08:51:36.798Z,29.70
2022-12-09T08:54:05.056Z,29.70
2022-12-09T08:56:33.538Z,29.70
2022-12-09T08:59:01.374Z,29.70
2022-12-09T09:01:34.420Z,29.80
2022-12-09T09:04:04.223Z,29.80
2022-12-09T09:06:33.261Z,29.80
2022-12-09T09:09:01.099Z,29.80
2022-12-09T09:11:28.930Z,29.80
2022-12-09T09:13:57.039Z,29.80
2022-12-09T09:16:25.638Z,29.70
2022-12-09T09:18:53.791Z,29.70
2022-12-09T09:21:23.568Z,29.70
2022-12-09T09:23:52.639Z,29.70
2022-12-09T09:26:21.481Z,29.60
2022-12-09T09:28:49.582Z,29.60
2022-12-09T09:31:18.668Z,29.60
2022-12-09T09:33:48.146Z,29.60
2022-12-09T09:36:21.761Z,29.60
2022-12-09T09:38:50.776Z,29.60
2022-12-09T09:41:38.676Z,29.60
2022-12-09T09:44:16.088Z,29.60
2022-12-09T09:46:45.986Z,29.60
2022-12-09T09:49:26.276Z,29.60
2022-12-09T09:51:55.002Z,29.60
2022-12-09T09:54:23.554Z,29.60
2022-12-09T09:56:55.299Z,29.60
2022-12-09T09:59:41.252Z,29.60
2022-12-09T10:02:14.785Z,29.50
2022-12-09T10:05:01.351Z,29.50
2022-12-09T10:10:31.418Z,29.40
2022-12-09T10:13:07.221Z,29.40
2022-12-09T10:15:41.916Z,29.30
2022-12-09T10:18:21.817Z,29.30
2022-12-09T10:20:49.644Z,29.30
2022-12-09T10:23:18.115Z,29.20
2022-12-09T10:25:54.092Z,29.20
2022-12-09T10:28:23.913Z,29.20
2022-12-09T10:30:52.865Z,29.10
2022-12-09T10:33:24.627Z,29.10
2022-12-09T10:35:53.511Z,29.10
2022-12-09T10:38:22.185Z,29.00
2022-12-09T10:41:06.544Z,29.00
2022-12-09T10:43:36.315Z,28.90
2022-12-09T10:46:21.449Z,28.90
2022-12-09T10:48:50.283Z,28.80
2022-12-09T10:51:20.851Z,28.80
2022-12-09T10:53:53.225Z,28.80
2022-12-09T10:56:23.463Z,28.70
2022-12-09T10:59:08.257Z,28.70
2022-12-09T11:01:55.986Z,28.60
2022-12-09T11:04:28.683Z,28.60
2022-12-09T11:07:03.264Z,28.60
2022-12-09T11:09:34.916Z,28.50
2022-12-09T11:12:05.640Z,28.50
2022-12-09T11:14:36.612Z,28.50
2022-12-09T11:17:23.455Z,28.40
2022-12-09T11:19:53.212Z,28.40
2022-12-09T11:22:39.691Z,28.40
2022-12-09T11:25:16.629Z,28.40
2022-12-09T11:27:57.009Z,28.40
2022-12-09T11:30:25.136Z,28.30
2022-12-09T11:32:59.796Z,28.30
2022-12-09T11:35:39.158Z,28.30
2022-12-09T11:38:25.412Z,28.20
2022-12-09T11:41:12.036Z,28.20
2022-12-09T11:43:40.084Z,28.20
2022-12-09T11:46:29.228Z,28.20
2022-12-09T11:49:03.273Z,28.10
2022-12-09T11:51:35.770Z,28.10
2022-12-09T11:54:16.491Z,28.10
2022-12-09T11:56:44.127Z,28.10
2022-12-09T11:59:18.910Z,28.10
2022-12-09T12:01:46.610Z,28.10
2022-12-09T12:04:15.863Z,28.10
2022-12-09T12:07:03.139Z,28.00
2022-12-09T12:09:42.636Z,28.00
2022-12-09T12:12:15.410Z,28.00
2022-12-09T12:14:43.453Z,28.00
2022-12-09T12:17:46.164Z,28.00
2022-12-09T12:20:14.066Z,27.90
2022-12-09T12:22:41.558Z,27.90
2022-12-09T12:25:23.739Z,27.80
2022-12-09T12:28:10.838Z,27.80
2022-12-09T12:30:44.167Z,27.70
2022-12-09T12:36:14.317Z,27.70
2022-12-09T12:39:05.236Z,27.60
2022-12-09T12:42:08.169Z,27.60
2022-12-09T12:45:01.011Z,27.60
2022-12-09T12:47:45.445Z,27.60
2022-12-09T12:50:13.027Z,27.60
2022-12-09T12:53:00.697Z,27.50
2022-12-09T12:55:44.001Z,27.50
2022-12-09T12:58:11.803Z,27.50
2022-12-09T13:00:51.655Z,27.50
2022-12-09T13:03:28.340Z,27.50
2022-12-09T13:05:57.219Z,27.50
2022-12-09T13:08:33.813Z,27.50
2022-12-09T13:11:05.143Z,27.40
2022-12-09T13:13:32.620Z,27.40
2022-12-09T13:16:06.818Z,27.40
2022-12-09T13:18:36.871Z,27.30
2022-12-09T13:21:06.187Z,27.20
2022-12-09T13:23:33.706Z,27.20
2022-12-09T13:26:07.297Z,27.20
2022-12-09T13:28:43.575Z,27.10
2022-12-09T13:31:11.371Z,27.10
2022-12-09T13:33:50.504Z,27.10
2022-12-09T13:36:29.337Z,27.10
2022-12-09T13:38:59.226Z,27.10
2022-12-09T13:41:27.515Z,27.10
2022-12-09T13:44:05.973Z,27.10
2022-12-09T13:46:34.147Z,27.10
2022-12-09T13:49:19.203Z,27.10
2022-12-09T13:51:52.650Z,27.10
2022-12-09T13:54:22.386Z,27.10
2022-12-09T13:57:08.465Z,27.00
2022-12-09T13:59:49.377Z,27.00
2022-12-09T14:02:37.705Z,27.00
2022-12-09T14:05:21.558Z,26.90
2022-12-09T14:07:51.841Z,26.90
2022-12-09T14:10:39.773Z,26.90
2022-12-09T14:13:25.780Z,26.90
2022-12-09T14:16:10.075Z,26.80
2022-12-09T14:18:40.077Z,26.80
2022-12-09T14:21:20.448Z,26.80
2022-12-09T14:24:06.552Z,26.80
2022-12-09T14:26:35.323Z,26.70
2022-12-09T14:29:04.123Z,26.70
2022-12-09T14:31:51.910Z,26.70
2022-12-09T14:34:28.407Z,26.70
2022-12-09T14:37:06.329Z,26.70
2022-12-09T14:39:38.090Z,26.70
2022-12-09T14:42:11.884Z,26.70
2022-12-09T14:44:42.460Z,26.60
2022-12-09T14:47:19.239Z,26.60
2022-12-09T14:49:49.439Z,26.60
2022-12-09T14:52:25.346Z,26.60
2022-12-09T14:54:53.226Z,26.60
2022-12-09T14:57:27.716Z,26.60
2022-12-09T14:59:56.022Z,26.60
2022-12-09T15:02:26.072Z,26.50
2022-12-09T15:04:54.765Z,26.50
2022-12-09T15:07:25.303Z,26.50
2022-12-09T15:09:55.671Z,26.50
2022-12-09T15:12:39.846Z,26.50
2022-12-09T15:15:12.890Z,26.50
2022-12-09T15:17:46.560Z,26.50
2022-12-09T15:20:25.217Z,26.50
2022-12-09T15:22:56.732Z,26.40
2022-12-09T15:25:26.019Z,26.40
2022-12-09T15:27:58.018Z,26.40
2022-12-09T15:30:28.560Z,26.40
2022-12-09T15:32:56.114Z,26.40
2022-12-09T15:35:25.758Z,26.30
2022-12-09T15:37:55.958Z,26.20
2022-12-09T15:40:29.283Z,26.20
2022-12-09T15:43:00.286Z,26.10
2022-12-09T15:45:30.168Z,26.10
2022-12-09T15:47:59.841Z,26.10
2022-12-09T15:50:36.624Z,26.00
2022-12-09T15:53:04.125Z,26.00
2022-12-09T15:55:40.175Z,26.00
2022-12-09T15:58:10.298Z,25.90
2022-12-09T16:00:41.913Z,25.90
2022-12-09T16:03:09.827Z,25.90
2022-12-09T16:05:41.971Z,25.90
2022-12-09T16:08:10.014Z,25.80
2022-12-09T16:10:48.966Z,25.80
2022-12-09T16:13:17.679Z,25.80
2022-12-09T16:15:50.476Z,25.80
2022-12-09T16:18:21.181Z,25.80
2022-12-09T16:21:01.000Z,25.80
2022-12-09T16:23:28.775Z,25.70
2022-12-09T16:26:04.917Z,25.70
2022-12-09T16:28:34.752Z,25.70
2022-12-09T16:31:04.304Z,25.60
2022-12-09T16:33:37.046Z,25.60
2022-12-09T16:36:06.164Z,25.60
2022-12-09T16:38:35.003Z,25.60
2022-12-09T16:41:06.937Z,25.60
2022-12-09T16:43:35.058Z,25.50
2022-12-09T16:46:25.547Z,25.50
2022-12-09T16:48:53.032Z,25.50
2022-12-09T16:51:23.600Z,25.50
2022-12-09T16:53:52.584Z,25.50
2022-12-09T16:56:25.046Z,25.50
2022-12-09T16:58:53.022Z,25.50
2022-12-09T17:01:21.561Z,25.50
2022-12-09T17:03:54.249Z,25.50
2022-12-09T17:06:22.117Z,25.50
2022-12-09T17:08:49.681Z,25.50
2022-12-09T17:11:18.067Z,25.60
2022-12-09T17:13:45.578Z,25.60
2022-12-09T17:16:13.152Z,25.60
2022-12-09T17:18:40.828Z,25.60
2022-12-09T17:21:13.820Z,25.60
2022-12-09T17:23:41.793Z,25.60
2022-12-09T17:26:11.171Z,25.60
2022-12-09T17:28:39.184Z,25.60
2022-12-09T17:31:14.638Z,25.60
2022-12-09T17:33:44.024Z,25.60
2022-12-09T17:36:12.343Z,25.60
2022-12-09T17:38:40.776Z,25.60
2022-12-09T17:41:09.907Z,25.60
2022-12-09T17:43:37.464Z,25.50
2022-12-09T17:46:06.425Z,25.50
2022-12-09T17:48:34.816Z,25.50
2022-12-09T17:51:06.709Z,25.50
2022-12-09T17:53:38.090Z,25.40
2022-12-09T17:56:20.129Z,25.50
2022-12-09T17:58:48.532Z,25.40
2022-12-09T18:01:17.557Z,25.40
2022-12-09T18:03:56.080Z,25.40
2022-12-09T18:06:25.860Z,25.30
2022-12-09T18:08:53.587Z,25.30
2022-12-09T18:11:22.611Z,25.30
2022-12-09T18:13:50.216Z,25.30
2022-12-09T18:16:18.018Z,25.20
2022-12-09T18:18:45.711Z,25.20
2022-12-09T18:21:16.025Z,25.20
2022-12-09T18:23:44.090Z,25.20
2022-12-09T18:26:15.298Z,25.10
2022-12-09T18:28:43.226Z,25.10
2022-12-09T18:31:12.404Z,25.00
2022-12-09T18:33:40.275Z,25.00
2022-12-09T18:36:12.990Z,25.00
2022-12-09T18:38:41.038Z,24.90
2022-12-09T18:41:19.245Z,24.90
2022-12-09T18:43:47.521Z,24.90
2022-12-09T18:46:16.050Z,24.80
2022-12-09T18:48:43.662Z,24.80
2022-12-09T18:51:15.355Z,24.80
2022-12-09T18:53:43.015Z,24.80
2022-12-09T18:56:10.558Z,24.80
2022-12-09T18:59:04.893Z,24.70
2022-12-09T19:01:27.612Z,24.60
2022-12-09T19:03:56.433Z,24.60
2022-12-09T19:06:26.328Z,24.60
2022-12-09T19:08:56.484Z,24.60
2022-12-09T19:11:26.561Z,24.60
2022-12-09T19:13:54.449Z,24.50
2022-12-09T19:16:22.346Z,24.50
2022-12-09T19:18:50.597Z,24.50
2022-12-09T19:21:19.534Z,24.50
2022-12-09T19:23:47.418Z,24.50
2022-12-09T19:26:16.143Z,24.40
2022-12-09T19:28:51.184Z,24.40
2022-12-09T19:31:28.735Z,24.40
2022-12-09T19:33:57.633Z,24.30
2022-12-09T19:36:25.992Z,24.30
2022-12-09T19:38:53.787Z,24.30
2022-12-09T19:41:21.728Z,24.30
2022-12-09T19:43:49.375Z,24.30
2022-12-09T19:46:18.217Z,24.30
2022-12-09T19:48:46.179Z,24.30
2022-12-09T19:51:15.010Z,24.20
2022-12-09T19:53:43.483Z,24.20
2022-12-09T19:56:13.324Z,24.20
2022-12-09T19:58:41.535Z,24.10
2022-12-09T20:01:10.625Z,24.10
2022-12-09T20:03:38.874Z,24.10
2022-12-09T20:06:08.082Z,24.10
2022-12-09T20:08:36.053Z,24.10
2022-12-09T20:11:03.826Z,24.00
2022-12-09T20:13:32.978Z,24.00
2022-12-09T20:16:03.777Z,24.00
2022-12-09T20:18:31.341Z,24.00
2022-12-09T20:21:05.773Z,24.00
2022-12-09T20:23:34.992Z,23.90
2022-12-09T20:26:13.860Z,23.90
2022-12-09T20:28:43.370Z,23.90
2022-12-09T20:34:01.583Z,23.90
2022-12-09T20:36:30.339Z,23.90
2022-12-09T20:38:59.241Z,23.90
2022-12-09T20:41:28.139Z,23.90
2022-12-09T20:43:56.915Z,23.90
2022-12-09T20:46:26.412Z,23.90
2022-12-09T20:48:54.708Z,23.80
2022-12-09T20:51:25.068Z,23.80
2022-12-09T20:53:53.437Z,23.80
2022-12-09T20:56:21.853Z,23.80
2022-12-09T20:58:51.334Z,23.80
2022-12-09T21:01:20.399Z,23.70
2022-12-09T21:03:49.282Z,23.80
2022-12-09T21:06:17.737Z,23.70
2022-12-09T21:08:45.863Z,23.70
2022-12-09T21:11:17.869Z,23.70
2022-12-09T21:13:49.885Z,23.70
2022-12-09T21:16:21.649Z,23.70
2022-12-09T21:18:50.225Z,23.60
2022-12-09T21:21:18.763Z,23.70
2022-12-09T21:23:46.604Z,23.70
2022-12-09T21:26:15.622Z,23.70
2022-12-09T21:28:44.158Z,23.60
2022-12-09T21:31:19.713Z,23.70
2022-12-09T21:33:48.349Z,23.70
2022-12-09T21:36:17.210Z,23.60
2022-12-09T21:38:45.060Z,23.60
2022-12-09T21:41:14.194Z,23.60
2022-12-09T21:43:42.277Z,23.60
2022-12-09T21:46:11.997Z,23.60
2022-12-09T21:48:39.892Z,23.50
2022-12-09T21:51:07.855Z,23.50
2022-12-09T21:53:35.510Z,23.50
2022-12-09T21:56:04.551Z,23.50
2022-12-09T21:58:32.698Z,23.50
2022-12-09T22:01:02.158Z,23.50
2022-12-09T22:03:29.685Z,23.50
2022-12-09T22:05:59.739Z,23.40
2022-12-09T22:08:28.267Z,23.40
2022-12-09T22:10:58.481Z,23.40
2022-12-09T22:13:26.547Z,23.30
2022-12-09T22:15:54.117Z,23.30
2022-12-09T22:18:21.610Z,23.30
2022-12-09T22:21:23.152Z,23.30
2022-12-09T22:23:36.825Z,23.20
2022-12-09T22:26:08.466Z,23.20
2022-12-09T22:28:36.552Z,23.20
2022-12-09T22:31:14.453Z,23.20
2022-12-09T22:33:42.262Z,23.20
2022-12-09T22:36:10.534Z,23.20
2022-12-09T22:38:38.772Z,23.10
2022-12-09T22:41:10.619Z,23.10
2022-12-09T22:43:39.415Z,23.10
2022-12-09T22:46:08.266Z,23.10
2022-12-09T22:48:37.034Z,23.10
2022-12-09T22:51:09.256Z,23.10
2022-12-09T22:53:36.858Z,23.00
2022-12-09T22:56:04.828Z,23.00
2022-12-09T22:58:32.399Z,23.00
2022-12-09T23:00:59.916Z,23.00
2022-12-09T23:03:27.575Z,23.00
2022-12-09T23:05:55.140Z,23.00
2022-12-09T23:08:22.846Z,23.00
2022-12-09T23:10:50.834Z,22.90
2022-12-09T23:13:18.462Z,22.90
2022-12-09T23:15:46.033Z,22.90
2022-12-09T23:18:13.570Z,22.90
2022-12-09T23:20:41.089Z,22.80
2022-12-09T23:23:08.546Z,22.80
2022-12-09T23:25:36.033Z,22.80
2022-12-09T23:28:04.652Z,22.80
2022-12-09T23:30:32.509Z,22.80
2022-12-09T23:33:00.820Z,22.80
2022-12-09T23:35:28.389Z,22.80
2022-12-09T23:37:56.497Z,22.70
2022-12-09T23:40:23.976Z,22.80
2022-12-09T23:42:53.091Z,22.80
2022-12-09T23:45:20.625Z,22.70
2022-12-09T23:47:48.117Z,22.80
2022-12-09T23:50:15.636Z,22.80
2022-12-09T23:52:43.226Z,22.80
2022-12-09T23:55:10.993Z,22.70
2022-12-09T23:57:38.615Z,22.70
